aviador You're here:

YBCG Decoded Metar

COOLANGATTA in AUSTRALIA
Report Time2018-07-21 08:00:00
UTC Time2018-07-21 08:11:39
Flight Rules vfr VFR
Wind190° at 05 kt
W.Decomp.*RWY 17: 4.9 kt HW 0.8 kt RCW
RWY 14: 3.9 kt HW 3.1 kt RCW
W.Rank190° ranks 1
Current wind is below 190° avg. (7.7)
Visibility9999 m
Phenomena:N/A
Clouds:N/A
Expected CloudBase > 2,400 ft AGL from Temp-Dew spread
CeilingNone
Temp12°C (ISA -3)
Dew Point06°C (67% RH)
AAT9.3°C
QNH1021 hPa
Density Alt-476 ft
Elevation20 ft
Report Wrong Elevation
Raw Report
YBCG 210800Z AUTO 19005KT 9999 // NCD 12/06 Q1021=

Extra information for YBCG:More info

Metar Taf Metar & Taf Last 4 Metars F.Rules Stats Wind Profile Meteogram Temp Stats Airport Information Weather charts Add Link Nearby VenuesMetar ALERT Operation Metar Decoded Social comments